createdAt,value
2024-04-30T00:00:11.784Z,0.52
2024-04-30T00:01:11.016Z,0.29
2024-04-30T00:02:10.938Z,0.24
2024-04-30T00:03:10.990Z,0.43
2024-04-30T00:04:11.177Z,0.38
2024-04-30T00:05:11.044Z,0.25
2024-04-30T00:06:11.026Z,0.29
2024-04-30T00:07:11.073Z,0.29
2024-04-30T00:08:11.067Z,0.35
2024-04-30T00:09:11.100Z,0.25
2024-04-30T00:10:11.148Z,0.36
2024-04-30T00:11:11.218Z,0.38
2024-04-30T00:12:11.173Z,0.34
2024-04-30T00:13:11.178Z,0.38
2024-04-30T00:14:11.205Z,0.44
2024-04-30T00:15:11.950Z,0.36
2024-04-30T00:16:11.304Z,0.37
2024-04-30T00:17:11.282Z,0.29
2024-04-30T00:18:11.304Z,0.42
2024-04-30T00:19:11.363Z,0.28
2024-04-30T00:20:11.487Z,0.21
2024-04-30T00:21:11.359Z,0.46
2024-04-30T00:22:11.399Z,0.59
2024-04-30T00:23:11.375Z,0.30
2024-04-30T00:24:11.427Z,0.30
2024-04-30T00:25:11.488Z,0.42
2024-04-30T00:26:11.436Z,0.34
2024-04-30T00:27:11.467Z,0.44
2024-04-30T00:28:11.538Z,0.38
2024-04-30T00:29:11.522Z,0.50
2024-04-30T00:30:11.527Z,0.36
2024-04-30T00:31:11.587Z,0.29
2024-04-30T00:32:11.602Z,0.28
2024-04-30T00:33:11.740Z,0.36
2024-04-30T00:34:11.639Z,0.36
2024-04-30T00:35:11.654Z,0.38
2024-04-30T00:36:11.663Z,0.38
2024-04-30T00:37:11.696Z,0.27
2024-04-30T00:38:11.728Z,0.37
2024-04-30T00:39:11.728Z,0.47
2024-04-30T00:40:11.786Z,0.35
2024-04-30T00:41:11.800Z,0.34
2024-04-30T00:42:11.815Z,0.54
2024-04-30T00:43:11.900Z,0.39
2024-04-30T00:44:11.875Z,0.25
2024-04-30T00:45:11.907Z,0.45
2024-04-30T00:46:11.933Z,0.26
2024-04-30T00:47:11.952Z,0.41
2024-04-30T00:48:12.040Z,0.12
2024-04-30T00:49:12.014Z,0.39
2024-04-30T00:50:12.026Z,0.29
2024-04-30T00:51:12.092Z,0.25
2024-04-30T00:52:12.113Z,0.28
2024-04-30T00:53:12.132Z,0.47
2024-04-30T00:54:12.192Z,0.57
2024-04-30T00:55:12.177Z,0.24
2024-04-30T00:56:12.171Z,0.37
2024-04-30T00:57:12.235Z,0.35
2024-04-30T00:58:12.262Z,0.32
2024-04-30T00:59:12.234Z,0.35
2024-04-30T01:00:12.283Z,0.57
2024-04-30T01:01:12.357Z,0.40
2024-04-30T01:02:12.394Z,0.27
2024-04-30T01:03:12.399Z,0.32
2024-04-30T01:04:12.438Z,0.69
2024-04-30T01:05:12.427Z,0.37
2024-04-30T01:06:12.438Z,0.23
2024-04-30T01:07:12.513Z,0.34
2024-04-30T01:08:12.563Z,0.35
2024-04-30T01:09:12.502Z,0.34
2024-04-30T01:10:12.589Z,0.55
2024-04-30T01:11:12.574Z,0.24
2024-04-30T01:12:13.609Z,0.34
2024-04-30T01:13:12.650Z,0.22
2024-04-30T01:14:12.643Z,0.36
2024-04-30T01:15:12.668Z,0.50
2024-04-30T01:16:12.740Z,0.32
2024-04-30T01:17:12.748Z,0.55
2024-04-30T01:18:12.794Z,0.42
2024-04-30T01:19:12.807Z,0.36
2024-04-30T01:20:12.835Z,0.39
2024-04-30T01:21:12.853Z,0.17
2024-04-30T01:22:12.912Z,0.32
2024-04-30T01:23:12.923Z,0.28
2024-04-30T01:24:12.924Z,0.30
2024-04-30T01:25:13.052Z,0.29
2024-04-30T01:26:12.995Z,0.30
2024-04-30T01:27:12.998Z,0.36
2024-04-30T01:28:13.054Z,0.47
2024-04-30T01:29:13.035Z,0.38
2024-04-30T01:30:13.124Z,0.39
2024-04-30T01:31:13.143Z,0.24
2024-04-30T01:32:13.163Z,0.38
2024-04-30T01:33:13.180Z,0.22
2024-04-30T01:34:13.204Z,0.61
2024-04-30T01:35:13.231Z,0.25
2024-04-30T01:36:13.256Z,0.30
2024-04-30T01:37:13.311Z,0.33
2024-04-30T01:38:13.316Z,0.13
2024-04-30T01:39:13.327Z,0.31
2024-04-30T01:40:13.400Z,0.37
2024-04-30T01:41:13.383Z,0.41
2024-04-30T01:42:13.392Z,0.28
2024-04-30T01:43:13.421Z,0.16
2024-04-30T01:44:13.537Z,0.26
2024-04-30T01:45:13.483Z,0.25
2024-04-30T01:46:13.546Z,0.28
2024-04-30T01:47:13.548Z,0.41
2024-04-30T01:48:13.623Z,0.41
2024-04-30T01:49:13.611Z,0.25
2024-04-30T01:50:13.654Z,0.33
2024-04-30T01:51:13.670Z,0.33
2024-04-30T01:52:13.745Z,0.31
2024-04-30T01:53:13.738Z,0.28
2024-04-30T01:54:13.784Z,0.33
2024-04-30T01:55:13.813Z,0.39
2024-04-30T01:56:13.813Z,0.41
2024-04-30T01:57:13.851Z,0.28
2024-04-30T01:58:13.942Z,0.35
2024-04-30T01:59:13.935Z,0.21
2024-04-30T02:00:13.964Z,0.54
2024-04-30T02:01:14.079Z,0.47
2024-04-30T02:02:14.044Z,0.24
2024-04-30T02:03:14.087Z,0.36
2024-04-30T02:04:14.128Z,0.20
2024-04-30T02:05:20.931Z,0.32
2024-04-30T02:06:15.158Z,0.46
2024-04-30T02:07:14.170Z,0.30
2024-04-30T02:08:14.148Z,0.11
2024-04-30T02:09:14.139Z,0.67
2024-04-30T02:10:14.241Z,0.51
2024-04-30T02:11:14.168Z,0.40
2024-04-30T02:12:14.175Z,0.32
2024-04-30T02:13:14.141Z,0.22
2024-04-30T02:14:14.120Z,0.38
2024-04-30T02:15:14.130Z,0.37
2024-04-30T02:16:14.177Z,0.40
2024-04-30T02:17:14.164Z,0.32
2024-04-30T02:18:14.195Z,0.37
2024-04-30T02:19:14.198Z,0.35
2024-04-30T02:20:14.159Z,0.26
2024-04-30T02:21:14.143Z,0.19
2024-04-30T02:22:14.206Z,0.38
2024-04-30T02:23:14.244Z,0.32
2024-04-30T02:24:14.300Z,0.16
2024-04-30T02:25:14.370Z,0.47
2024-04-30T02:26:14.374Z,0.33
2024-04-30T02:27:14.380Z,0.40
2024-04-30T02:28:14.550Z,0.16
2024-04-30T02:29:14.489Z,0.31
2024-04-30T02:30:14.550Z,0.40
2024-04-30T02:31:14.557Z,0.27
2024-04-30T02:32:14.631Z,0.32
2024-04-30T02:33:14.632Z,0.28
2024-04-30T02:34:14.688Z,0.36
2024-04-30T02:35:14.749Z,0.34
2024-04-30T02:36:14.766Z,0.19
2024-04-30T02:37:14.841Z,0.24
2024-04-30T02:38:14.869Z,0.30
2024-04-30T02:39:14.878Z,0.39
2024-04-30T02:40:14.992Z,0.34
2024-04-30T02:41:14.964Z,0.33
2024-04-30T02:42:15.005Z,0.37
2024-04-30T02:43:15.073Z,0.26
2024-04-30T02:44:15.104Z,0.35
2024-04-30T02:45:15.125Z,0.31
2024-04-30T02:46:15.174Z,0.49
2024-04-30T02:47:15.248Z,0.33
2024-04-30T02:48:15.259Z,0.31
2024-04-30T02:49:15.322Z,0.31
2024-04-30T02:50:15.316Z,0.43
2024-04-30T02:51:15.358Z,0.18
2024-04-30T02:52:15.419Z,0.33
2024-04-30T02:53:15.485Z,0.20
2024-04-30T02:54:15.489Z,0.28
2024-04-30T02:55:15.578Z,0.29
2024-04-30T02:56:15.600Z,0.23
2024-04-30T02:57:15.603Z,0.33
2024-04-30T02:58:15.727Z,0.30
2024-04-30T02:59:15.717Z,0.32
2024-04-30T03:00:15.721Z,0.30
2024-04-30T03:01:15.847Z,0.42
2024-04-30T03:02:15.902Z,0.40
2024-04-30T03:03:15.844Z,0.27
2024-04-30T03:04:16.002Z,0.25
2024-04-30T03:05:15.982Z,0.53
2024-04-30T03:06:16.017Z,0.34
2024-04-30T03:07:16.115Z,0.30
2024-04-30T03:08:16.110Z,0.37
2024-04-30T03:09:16.142Z,0.37
2024-04-30T03:10:16.227Z,0.33
2024-04-30T03:11:16.330Z,0.36
2024-04-30T03:12:16.278Z,0.57
2024-04-30T03:13:16.367Z,0.52
2024-04-30T03:14:16.381Z,0.29
2024-04-30T03:15:17.983Z,0.13
2024-04-30T03:16:16.478Z,0.23
2024-04-30T03:17:16.561Z,0.46
2024-04-30T03:18:16.709Z,0.20
2024-04-30T03:19:16.645Z,0.22
2024-04-30T03:20:16.636Z,0.32
2024-04-30T03:21:16.659Z,0.33
2024-04-30T03:22:16.759Z,0.38
2024-04-30T03:23:16.762Z,0.22
2024-04-30T03:24:16.814Z,0.35
2024-04-30T03:25:16.924Z,0.46
2024-04-30T03:26:16.908Z,0.50
2024-04-30T03:27:16.981Z,0.34
2024-04-30T03:28:17.014Z,0.37
2024-04-30T03:29:17.063Z,0.33
2024-04-30T03:30:17.112Z,0.19
2024-04-30T03:31:17.192Z,0.24
2024-04-30T03:32:17.265Z,0.30
2024-04-30T03:33:17.371Z,0.28
2024-04-30T03:34:17.333Z,0.28
2024-04-30T03:35:17.349Z,0.21
2024-04-30T03:36:17.392Z,0.45
2024-04-30T03:37:17.536Z,0.37
2024-04-30T03:38:17.503Z,0.28
2024-04-30T03:39:17.568Z,0.32
2024-04-30T03:40:17.600Z,0.35
2024-04-30T03:41:17.702Z,0.27
2024-04-30T03:42:17.694Z,0.31
2024-04-30T03:43:17.835Z,0.43
2024-04-30T03:44:17.801Z,0.38
2024-04-30T03:45:18.029Z,0.26
2024-04-30T03:46:17.979Z,0.50
2024-04-30T03:47:17.963Z,0.25
2024-04-30T03:48:18.020Z,0.48
2024-04-30T03:49:18.035Z,0.31
2024-04-30T03:50:18.088Z,0.44
2024-04-30T03:51:18.137Z,0.30
2024-04-30T03:52:18.229Z,0.30
2024-04-30T03:53:18.209Z,0.44
2024-04-30T03:54:18.301Z,0.54
2024-04-30T03:55:18.395Z,0.20
2024-04-30T03:56:18.362Z,0.31
2024-04-30T03:57:18.423Z,0.52
2024-04-30T03:58:21.096Z,0.51
2024-04-30T03:59:18.454Z,0.41
2024-04-30T04:00:18.478Z,0.22
2024-04-30T04:01:18.474Z,0.38
2024-04-30T04:02:18.468Z,0.18
2024-04-30T04:03:18.459Z,0.22
2024-04-30T04:04:18.587Z,0.33
2024-04-30T04:05:18.485Z,0.27
2024-04-30T04:06:18.475Z,0.33
2024-04-30T04:07:18.498Z,0.31
2024-04-30T04:08:18.497Z,0.42
2024-04-30T04:09:18.457Z,0.28
2024-04-30T04:10:18.524Z,0.38
2024-04-30T04:11:18.515Z,0.38
2024-04-30T04:12:18.547Z,0.27
2024-04-30T04:13:18.516Z,0.36
2024-04-30T04:14:18.473Z,0.31
2024-04-30T04:15:18.486Z,0.41
2024-04-30T04:16:18.512Z,0.31
2024-04-30T04:17:18.606Z,0.57
2024-04-30T04:18:18.599Z,0.37
2024-04-30T04:19:18.523Z,0.24
2024-04-30T04:20:18.490Z,0.48
2024-04-30T04:21:20.570Z,0.31
2024-04-30T04:22:18.530Z,0.33
2024-04-30T04:23:26.373Z,0.37
2024-04-30T04:24:26.522Z,0.31
2024-04-30T04:25:26.749Z,0.64
2024-04-30T04:26:26.899Z,0.30
2024-04-30T04:27:27.021Z,0.36
2024-04-30T04:28:27.076Z,0.37
2024-04-30T04:29:27.301Z,0.34
2024-04-30T04:30:27.795Z,0.44
2024-04-30T04:31:27.627Z,0.35
2024-04-30T04:32:27.784Z,0.28
2024-04-30T04:33:27.942Z,0.30
2024-04-30T04:34:28.093Z,0.28
2024-04-30T04:35:28.119Z,0.48
2024-04-30T04:36:28.102Z,0.49
2024-04-30T04:37:28.157Z,0.38
2024-04-30T04:38:28.108Z,0.46
2024-04-30T04:39:28.120Z,0.22
2024-04-30T04:40:28.167Z,0.27
2024-04-30T04:41:28.105Z,0.42
2024-04-30T04:42:28.128Z,0.42
2024-04-30T04:43:28.183Z,0.43
2024-04-30T04:44:28.155Z,0.41
2024-04-30T04:45:28.127Z,0.39
2024-04-30T04:46:28.142Z,0.36
2024-04-30T04:47:28.311Z,0.32
2024-04-30T04:48:28.324Z,0.41
2024-04-30T04:49:28.365Z,0.25
2024-04-30T04:50:28.360Z,0.29
2024-04-30T04:51:28.372Z,0.55
2024-04-30T04:52:28.408Z,0.43
2024-04-30T04:53:28.393Z,0.29
2024-04-30T04:54:28.397Z,0.38
2024-04-30T04:55:28.439Z,0.35
2024-04-30T04:56:28.430Z,0.51
2024-04-30T04:57:28.440Z,0.28
2024-04-30T04:58:28.556Z,0.38
2024-04-30T04:59:28.875Z,0.38
2024-04-30T05:00:28.553Z,0.40
2024-04-30T05:01:28.581Z,0.26
2024-04-30T05:02:28.607Z,0.40
2024-04-30T05:03:28.687Z,0.73
2024-04-30T05:04:28.789Z,0.41
2024-04-30T05:05:28.808Z,0.24
2024-04-30T05:06:28.764Z,0.27
2024-04-30T05:07:28.857Z,0.45
2024-04-30T05:08:28.957Z,0.43
2024-04-30T05:09:29.029Z,0.40
2024-04-30T05:10:29.059Z,0.40
2024-04-30T05:11:29.064Z,0.35
2024-04-30T05:12:29.093Z,0.28
2024-04-30T05:13:29.170Z,0.34
2024-04-30T05:14:29.178Z,0.51
2024-04-30T05:15:29.970Z,0.35
2024-04-30T05:16:29.367Z,0.37
2024-04-30T05:17:29.462Z,0.37
2024-04-30T05:18:29.404Z,0.17
2024-04-30T05:19:29.445Z,0.35
2024-04-30T05:20:29.420Z,0.37
2024-04-30T05:21:29.399Z,0.38
2024-04-30T05:22:29.438Z,0.30
2024-04-30T05:23:29.448Z,0.36
2024-04-30T05:24:29.484Z,0.38
2024-04-30T05:25:29.506Z,0.25
2024-04-30T05:26:29.508Z,0.30
2024-04-30T05:27:29.575Z,0.25
2024-04-30T05:28:29.653Z,0.60
2024-04-30T05:29:29.591Z,1.01
2024-04-30T05:30:29.623Z,0.92
2024-04-30T05:31:29.740Z,1.40
2024-04-30T05:32:29.986Z,1.78
2024-04-30T05:33:29.798Z,1.67
2024-04-30T05:34:29.897Z,1.59
2024-04-30T05:35:29.868Z,2.04
2024-04-30T05:36:29.952Z,2.41
2024-04-30T05:37:30.066Z,2.01
2024-04-30T05:38:30.063Z,2.25
2024-04-30T05:39:30.214Z,1.68
2024-04-30T05:40:30.252Z,1.63
2024-04-30T05:41:30.291Z,1.41
2024-04-30T05:42:30.330Z,1.64
2024-04-30T05:43:30.455Z,2.02
2024-04-30T05:44:30.518Z,1.79
2024-04-30T05:45:30.508Z,1.39
2024-04-30T05:46:30.654Z,1.80
2024-04-30T05:47:30.712Z,1.59
2024-04-30T05:48:30.730Z,2.18
2024-04-30T05:49:30.986Z,2.19
2024-04-30T05:50:31.062Z,1.44
2024-04-30T05:51:31.372Z,1.08
2024-04-30T05:52:31.447Z,1.59
2024-04-30T05:53:31.084Z,1.71
2024-04-30T05:54:31.127Z,1.44
2024-04-30T05:55:31.233Z,1.38
2024-04-30T05:56:31.238Z,1.48
2024-04-30T05:57:31.330Z,1.60
2024-04-30T05:58:31.342Z,1.41
2024-04-30T05:59:31.325Z,1.27
2024-04-30T06:00:31.410Z,1.17
2024-04-30T06:01:31.939Z,1.09
2024-04-30T06:02:33.392Z,0.96
2024-04-30T06:03:31.827Z,1.05
2024-04-30T06:04:31.504Z,1.34
2024-04-30T06:05:31.554Z,1.03
2024-04-30T06:06:31.511Z,1.64
2024-04-30T06:07:31.624Z,1.23
2024-04-30T06:08:31.542Z,1.00
2024-04-30T06:09:31.598Z,1.18
2024-04-30T06:10:31.624Z,1.00
2024-04-30T06:11:31.617Z,0.83
2024-04-30T06:12:31.622Z,0.74
2024-04-30T06:13:32.025Z,0.83
2024-04-30T06:14:31.630Z,1.20
2024-04-30T06:15:31.639Z,1.24
2024-04-30T06:16:31.690Z,0.51
2024-04-30T06:17:31.687Z,1.26
2024-04-30T06:18:31.707Z,0.76
2024-04-30T06:19:31.697Z,1.10
2024-04-30T06:20:31.791Z,0.96
2024-04-30T06:21:37.675Z,0.99
2024-04-30T06:22:32.755Z,0.75
2024-04-30T06:23:31.743Z,1.31
2024-04-30T06:24:31.927Z,0.96
2024-04-30T06:25:31.852Z,0.75
2024-04-30T06:26:31.919Z,1.00
2024-04-30T06:27:31.820Z,1.03
2024-04-30T06:28:34.042Z,0.78
2024-04-30T06:29:31.728Z,0.93
2024-04-30T06:30:31.745Z,1.28
2024-04-30T06:31:31.842Z,0.78
2024-04-30T06:32:31.872Z,0.77
2024-04-30T06:33:31.806Z,0.63
2024-04-30T06:34:31.781Z,0.74
2024-04-30T06:35:31.775Z,0.99
2024-04-30T06:36:31.780Z,0.72
2024-04-30T06:37:31.833Z,0.66
2024-04-30T06:38:31.810Z,1.14
2024-04-30T06:39:31.744Z,0.60
2024-04-30T06:40:31.798Z,0.83
2024-04-30T06:41:31.873Z,0.77
2024-04-30T06:42:31.774Z,0.87
2024-04-30T06:43:31.771Z,0.98
2024-04-30T06:44:31.777Z,0.78
2024-04-30T06:45:31.781Z,0.66
2024-04-30T06:46:31.815Z,0.76
2024-04-30T06:47:31.918Z,0.81
2024-04-30T06:48:31.923Z,0.96
2024-04-30T06:49:32.549Z,0.80
2024-04-30T06:50:31.830Z,0.87
2024-04-30T06:51:31.796Z,0.80
2024-04-30T06:52:32.097Z,0.68
2024-04-30T06:53:31.797Z,0.73
2024-04-30T06:54:31.820Z,1.04
2024-04-30T06:55:31.830Z,0.61
2024-04-30T06:56:31.830Z,1.15
2024-04-30T06:57:31.939Z,0.65
2024-04-30T06:58:31.816Z,0.56
2024-04-30T06:59:31.897Z,0.82
2024-04-30T07:00:31.795Z,0.42
2024-04-30T07:01:31.802Z,0.99
2024-04-30T07:02:32.020Z,0.85
2024-04-30T07:03:31.811Z,0.58
2024-04-30T07:04:31.838Z,0.82
2024-04-30T07:05:31.894Z,0.72
2024-04-30T07:06:31.924Z,0.82
2024-04-30T07:07:32.109Z,0.90
2024-04-30T07:08:32.049Z,0.68
2024-04-30T07:09:32.140Z,0.68
2024-04-30T07:10:32.199Z,0.71
2024-04-30T07:11:32.503Z,0.43
2024-04-30T07:12:32.456Z,0.90
2024-04-30T07:13:32.467Z,0.77
2024-04-30T07:14:32.388Z,0.77
2024-04-30T07:15:32.476Z,0.58
2024-04-30T07:16:32.515Z,0.62
2024-04-30T07:17:33.975Z,0.56
2024-04-30T07:18:33.077Z,0.60
2024-04-30T07:19:33.095Z,0.81
2024-04-30T07:20:32.753Z,0.97
2024-04-30T07:21:32.748Z,0.77
2024-04-30T07:22:32.817Z,0.77
2024-04-30T07:23:32.822Z,0.63
2024-04-30T07:24:32.942Z,0.62
2024-04-30T07:25:33.978Z,0.78
2024-04-30T07:26:33.046Z,1.36
2024-04-30T07:27:32.995Z,0.92
2024-04-30T07:28:33.081Z,0.91
2024-04-30T07:29:33.411Z,1.12
2024-04-30T07:30:33.185Z,1.14
2024-04-30T07:31:33.404Z,1.25
2024-04-30T07:32:33.420Z,1.35
2024-04-30T07:33:34.071Z,1.90
2024-04-30T07:34:33.711Z,1.52
2024-04-30T07:35:33.456Z,1.57
2024-04-30T07:36:33.481Z,2.06
2024-04-30T07:37:33.627Z,1.87
2024-04-30T07:38:33.786Z,1.78
2024-04-30T07:39:33.898Z,1.97
2024-04-30T07:40:34.642Z,1.64
2024-04-30T07:41:34.004Z,1.46
2024-04-30T07:42:34.033Z,1.58
2024-04-30T07:43:34.117Z,2.06
2024-04-30T07:44:36.892Z,1.18
2024-04-30T07:45:34.418Z,1.53
2024-04-30T07:46:34.298Z,1.52
2024-04-30T07:47:34.204Z,1.69
2024-04-30T07:48:34.143Z,1.41
2024-04-30T07:49:34.320Z,1.66
2024-04-30T07:50:34.128Z,1.46
2024-04-30T07:51:34.147Z,1.51
2024-04-30T07:52:34.456Z,1.55
2024-04-30T07:53:34.087Z,1.24
2024-04-30T07:54:34.110Z,1.13
2024-04-30T07:55:34.182Z,1.05
2024-04-30T07:56:34.120Z,1.17
2024-04-30T07:57:34.203Z,0.97
2024-04-30T07:58:34.492Z,0.97
2024-04-30T07:59:34.232Z,1.75
2024-04-30T08:00:34.217Z,2.10
2024-04-30T08:01:34.275Z,2.11
2024-04-30T08:02:34.162Z,1.19
2024-04-30T08:03:34.449Z,1.15
2024-04-30T08:04:34.192Z,1.14
2024-04-30T08:05:42.685Z,1.76
2024-04-30T08:06:35.213Z,1.22
2024-04-30T08:07:34.244Z,1.45
2024-04-30T08:08:34.411Z,1.01
2024-04-30T08:09:34.202Z,1.13
2024-04-30T08:10:34.423Z,1.22
2024-04-30T08:11:34.295Z,1.29
2024-04-30T08:12:34.221Z,1.16
2024-04-30T08:13:34.333Z,0.92
2024-04-30T08:14:36.367Z,2.70
2024-04-30T08:15:34.442Z,1.58
2024-04-30T08:16:34.513Z,0.83
2024-04-30T08:17:34.676Z,1.27
2024-04-30T08:18:34.626Z,1.49
2024-04-30T08:19:39.626Z,1.47
2024-04-30T08:20:35.936Z,1.34
2024-04-30T08:21:34.624Z,1.87
2024-04-30T08:22:34.553Z,1.10
2024-04-30T08:23:34.576Z,0.92
2024-04-30T08:24:34.604Z,1.00
2024-04-30T08:25:34.985Z,0.78
2024-04-30T08:26:34.601Z,0.73
2024-04-30T08:27:34.627Z,0.97
2024-04-30T08:28:34.776Z,0.67
2024-04-30T08:29:34.626Z,0.90
2024-04-30T08:30:34.977Z,0.49
2024-04-30T08:31:34.662Z,0.90
2024-04-30T08:32:34.708Z,0.93
2024-04-30T08:33:34.946Z,0.88
2024-04-30T08:34:35.045Z,1.20
2024-04-30T08:35:34.879Z,1.02
2024-04-30T08:36:34.861Z,1.08
2024-04-30T08:37:40.111Z,1.45
2024-04-30T08:38:35.944Z,1.08
2024-04-30T08:39:35.439Z,1.06
2024-04-30T08:40:34.985Z,1.06
2024-04-30T08:41:34.938Z,1.71
2024-04-30T08:42:34.958Z,1.65
2024-04-30T08:43:35.185Z,1.71
2024-04-30T08:44:35.454Z,1.43
2024-04-30T08:45:35.450Z,1.46
2024-04-30T08:46:35.072Z,1.78
2024-04-30T08:47:36.175Z,1.49
2024-04-30T08:48:35.098Z,2.01
2024-04-30T08:49:46.135Z,1.56
2024-04-30T09:00:02.510Z,1.63
2024-04-30T09:01:02.570Z,1.60
2024-04-30T09:02:02.621Z,2.01
2024-04-30T09:03:03.738Z,1.85
2024-04-30T09:04:03.178Z,1.30
2024-04-30T09:05:02.652Z,1.29
2024-04-30T09:06:02.602Z,1.70
2024-04-30T09:07:02.716Z,1.81
2024-04-30T09:08:02.632Z,1.62
2024-04-30T09:09:02.637Z,2.46
2024-04-30T09:10:03.604Z,1.53
2024-04-30T09:11:03.749Z,1.48
2024-04-30T09:12:03.189Z,1.64
2024-04-30T09:13:02.640Z,1.92
2024-04-30T09:14:02.688Z,1.62
2024-04-30T09:15:02.718Z,1.27
2024-04-30T09:16:03.916Z,1.43
2024-04-30T09:17:03.489Z,1.52
2024-04-30T09:18:02.815Z,1.42
2024-04-30T09:19:02.720Z,1.80
2024-04-30T09:20:02.721Z,1.47
2024-04-30T09:22:02.772Z,1.75
2024-04-30T09:23:03.134Z,1.47
2024-04-30T09:24:02.746Z,2.14
2024-04-30T09:25:02.755Z,1.75
2024-04-30T09:26:02.731Z,1.90
2024-04-30T09:27:02.737Z,1.48
2024-04-30T09:28:02.764Z,1.75
2024-04-30T09:29:02.766Z,1.64
2024-04-30T09:30:02.789Z,1.35
2024-04-30T09:31:02.784Z,1.87
2024-04-30T09:32:02.786Z,2.13
2024-04-30T09:33:02.819Z,1.70
2024-04-30T09:34:02.809Z,1.67
2024-04-30T09:35:02.815Z,1.42
2024-04-30T09:36:06.248Z,1.44
2024-04-30T09:37:03.832Z,1.61
2024-04-30T09:38:02.869Z,1.64
2024-04-30T09:39:02.764Z,1.46
2024-04-30T09:40:02.930Z,1.27
2024-04-30T09:41:02.789Z,1.19
2024-04-30T09:42:02.780Z,1.18
2024-04-30T09:43:02.814Z,1.29
2024-04-30T09:44:02.801Z,1.40
2024-04-30T09:45:02.782Z,1.57
2024-04-30T09:46:02.854Z,1.43
2024-04-30T09:47:02.953Z,1.52
2024-04-30T09:48:03.158Z,1.32
2024-04-30T09:49:04.367Z,1.43
2024-04-30T09:50:02.997Z,1.03
2024-04-30T09:51:02.854Z,1.40
2024-04-30T09:52:02.779Z,1.69
2024-04-30T09:53:02.821Z,1.56
2024-04-30T09:54:02.824Z,1.45
2024-04-30T09:55:02.763Z,1.46
2024-04-30T09:56:05.543Z,1.02
2024-04-30T09:57:03.119Z,1.50
2024-04-30T09:58:02.814Z,1.37
2024-04-30T09:59:02.893Z,1.66
2024-04-30T10:00:02.925Z,1.56
2024-04-30T10:01:02.838Z,1.33
2024-04-30T10:02:03.578Z,1.42
2024-04-30T10:03:02.870Z,1.52
2024-04-30T10:04:02.865Z,1.36
2024-04-30T10:05:03.122Z,1.64
2024-04-30T10:06:02.839Z,1.49
2024-04-30T10:07:02.778Z,1.41
2024-04-30T10:08:02.796Z,1.38
2024-04-30T10:09:03.082Z,1.54
2024-04-30T10:10:02.926Z,1.40
2024-04-30T10:11:02.921Z,1.49
2024-04-30T10:12:02.854Z,1.71
2024-04-30T10:13:02.856Z,1.44
2024-04-30T10:14:02.860Z,1.68
2024-04-30T10:15:02.813Z,1.78
2024-04-30T10:16:02.836Z,1.96
2024-04-30T10:17:03.245Z,1.59
2024-04-30T10:18:02.946Z,1.96
2024-04-30T10:19:02.824Z,1.82
2024-04-30T10:20:02.853Z,1.49
2024-04-30T10:21:02.807Z,1.85
2024-04-30T10:22:02.838Z,1.98
2024-04-30T10:23:03.039Z,1.64
2024-04-30T10:24:02.848Z,1.81
2024-04-30T10:25:02.865Z,2.78
2024-04-30T10:26:02.875Z,2.44
2024-04-30T10:27:02.847Z,2.01
2024-04-30T10:28:02.855Z,1.63
2024-04-30T10:29:02.812Z,2.29
2024-04-30T10:30:02.833Z,1.69
2024-04-30T10:31:02.849Z,1.94
2024-04-30T10:32:02.854Z,1.81
2024-04-30T10:33:03.086Z,1.87
2024-04-30T10:34:02.882Z,2.04
2024-04-30T10:35:02.807Z,2.02
2024-04-30T10:36:02.816Z,2.62
2024-04-30T10:37:02.865Z,2.34
2024-04-30T10:38:03.085Z,2.11
2024-04-30T10:39:02.832Z,2.27
2024-04-30T10:40:02.835Z,2.03
2024-04-30T10:41:02.847Z,2.41
2024-04-30T10:42:03.069Z,2.11
2024-04-30T10:43:02.865Z,2.38
2024-04-30T10:44:02.866Z,2.95
2024-04-30T10:45:02.836Z,2.71
2024-04-30T10:46:02.881Z,2.25
2024-04-30T10:47:02.838Z,1.93
2024-04-30T10:48:03.223Z,2.44
2024-04-30T10:49:02.898Z,2.45
2024-04-30T10:51:02.836Z,1.91
2024-04-30T10:52:02.875Z,2.49
2024-04-30T10:53:03.544Z,2.17
2024-04-30T10:54:03.097Z,2.26
2024-04-30T10:55:02.844Z,2.31
2024-04-30T10:56:03.074Z,2.11
2024-04-30T10:57:02.847Z,2.16
2024-04-30T10:58:02.858Z,2.05
2024-04-30T10:59:03.072Z,2.21
2024-04-30T11:00:02.862Z,2.71
2024-04-30T11:01:02.928Z,2.47
2024-04-30T11:02:02.939Z,2.56
2024-04-30T11:03:02.918Z,2.03
2024-04-30T11:04:02.859Z,2.29
2024-04-30T11:05:02.992Z,2.17
2024-04-30T11:06:02.859Z,2.57
2024-04-30T11:07:02.854Z,2.90
2024-04-30T11:08:03.060Z,2.34
2024-04-30T11:09:02.866Z,2.52
2024-04-30T11:10:02.870Z,2.52
2024-04-30T11:11:02.903Z,2.50
2024-04-30T11:12:02.905Z,2.83
2024-04-30T11:13:03.570Z,2.76
2024-04-30T11:14:02.882Z,2.51
2024-04-30T11:15:02.864Z,2.36
2024-04-30T11:16:10.353Z,2.35
2024-04-30T11:17:04.014Z,2.70
2024-04-30T11:18:03.265Z,2.31
2024-04-30T11:19:02.909Z,2.42
2024-04-30T11:20:02.947Z,2.99
2024-04-30T11:21:02.853Z,2.53
2024-04-30T11:22:02.870Z,2.99
2024-04-30T11:23:02.868Z,2.95
2024-04-30T11:24:02.884Z,2.63
2024-04-30T11:25:02.908Z,2.99
2024-04-30T11:26:02.879Z,2.64
2024-04-30T11:27:02.854Z,2.57
2024-04-30T11:28:02.867Z,2.91
2024-04-30T11:29:15.696Z,2.93
2024-04-30T11:30:03.952Z,2.53
2024-04-30T11:31:02.867Z,2.79
2024-04-30T11:32:02.906Z,2.38
2024-04-30T11:33:03.046Z,2.77
2024-04-30T11:34:02.906Z,3.17
2024-04-30T11:35:02.915Z,2.16
2024-04-30T11:36:02.908Z,3.18
2024-04-30T11:37:02.928Z,2.98
2024-04-30T11:38:02.992Z,3.32
2024-04-30T11:39:02.958Z,2.76
2024-04-30T11:40:02.925Z,3.22
2024-04-30T11:41:02.884Z,2.73
2024-04-30T11:42:13.551Z,2.51
2024-04-30T11:43:03.938Z,2.92
2024-04-30T11:44:03.008Z,2.77
2024-04-30T11:45:02.986Z,2.57
2024-04-30T11:46:02.945Z,2.85
2024-04-30T11:47:02.955Z,3.20
2024-04-30T11:48:03.108Z,3.06
2024-04-30T11:49:02.983Z,2.90
2024-04-30T11:50:02.945Z,2.67
2024-04-30T11:51:02.935Z,2.57
2024-04-30T11:52:02.954Z,2.94
2024-04-30T11:53:03.113Z,2.68
2024-04-30T11:54:02.988Z,3.01
2024-04-30T11:55:02.942Z,2.67
2024-04-30T11:56:02.982Z,3.01
2024-04-30T11:57:03.037Z,2.64
2024-04-30T11:58:03.004Z,3.80
2024-04-30T11:59:02.998Z,3.13
2024-04-30T12:00:03.015Z,2.90
2024-04-30T12:01:03.126Z,2.30
2024-04-30T12:02:03.189Z,3.29
2024-04-30T12:03:03.137Z,3.26
2024-04-30T12:04:03.237Z,3.49
2024-04-30T12:05:03.342Z,3.73
2024-04-30T12:06:03.240Z,3.31
2024-04-30T12:07:03.266Z,2.89
2024-04-30T12:08:03.407Z,3.08
2024-04-30T12:09:03.422Z,3.49
2024-04-30T12:10:03.507Z,2.99
2024-04-30T12:11:03.778Z,3.24
2024-04-30T12:12:03.610Z,3.73
2024-04-30T12:13:03.681Z,2.51
2024-04-30T12:14:03.792Z,2.20
2024-04-30T12:15:03.825Z,2.17
2024-04-30T12:16:03.969Z,3.28
2024-04-30T12:17:04.014Z,2.59
2024-04-30T12:18:04.085Z,2.40
2024-04-30T12:19:04.086Z,2.28
2024-04-30T12:20:04.142Z,2.13
2024-04-30T12:21:04.222Z,1.86
2024-04-30T12:22:04.296Z,2.22
2024-04-30T12:23:04.365Z,2.45
2024-04-30T12:24:04.417Z,1.95
2024-04-30T12:25:04.538Z,1.93
2024-04-30T12:26:04.534Z,2.81
2024-04-30T12:27:04.607Z,2.20
2024-04-30T12:28:04.717Z,1.66
2024-04-30T12:29:04.816Z,2.17
2024-04-30T12:30:04.838Z,1.99
2024-04-30T12:31:04.871Z,1.89
2024-04-30T12:32:07.683Z,1.97
2024-04-30T12:33:05.115Z,1.51
2024-04-30T12:34:05.066Z,2.79
2024-04-30T12:35:05.051Z,2.32
2024-04-30T12:36:05.079Z,1.84
2024-04-30T12:37:05.000Z,2.07
2024-04-30T12:38:05.012Z,2.08
2024-04-30T12:39:05.039Z,2.10
2024-04-30T12:40:07.920Z,1.96
2024-04-30T12:41:05.054Z,1.81
2024-04-30T12:42:05.045Z,1.58
2024-04-30T12:43:05.120Z,1.97
2024-04-30T12:44:05.686Z,2.01
2024-04-30T12:45:05.030Z,2.34
2024-04-30T12:46:05.786Z,1.90
2024-04-30T12:47:05.031Z,1.81
2024-04-30T12:48:05.203Z,1.72
2024-04-30T12:49:05.051Z,2.06
2024-04-30T12:50:05.060Z,1.99
2024-04-30T12:51:05.075Z,2.20
2024-04-30T12:52:05.102Z,2.24
2024-04-30T12:53:05.089Z,2.70
2024-04-30T12:54:05.097Z,1.81
2024-04-30T12:55:05.037Z,2.18
2024-04-30T12:56:05.051Z,2.92
2024-04-30T12:57:05.067Z,2.82
2024-04-30T12:58:05.075Z,2.45
2024-04-30T12:59:05.051Z,2.46
2024-04-30T13:00:05.088Z,2.36
2024-04-30T13:01:05.147Z,2.24
2024-04-30T13:02:05.103Z,2.24
2024-04-30T13:03:05.304Z,2.87
2024-04-30T13:04:05.103Z,2.13
2024-04-30T13:05:05.164Z,2.85
2024-04-30T13:06:05.073Z,2.48
2024-04-30T13:07:05.079Z,2.84
2024-04-30T13:08:05.074Z,2.74
2024-04-30T13:09:05.130Z,2.83
2024-04-30T13:10:05.126Z,3.13
2024-04-30T13:11:05.193Z,3.15
2024-04-30T13:12:05.104Z,3.18
2024-04-30T13:13:05.063Z,3.07
2024-04-30T13:14:05.123Z,3.30
2024-04-30T13:15:05.134Z,3.66
2024-04-30T13:16:05.191Z,3.25
2024-04-30T13:17:05.245Z,3.35
2024-04-30T13:18:05.374Z,2.97
2024-04-30T13:19:05.435Z,2.81
2024-04-30T13:20:05.528Z,3.75
2024-04-30T13:21:05.570Z,3.35
2024-04-30T13:22:05.583Z,2.65
2024-04-30T13:23:05.718Z,2.79
2024-04-30T13:24:05.750Z,2.65
2024-04-30T13:25:05.829Z,2.45
2024-04-30T13:26:05.862Z,2.66
2024-04-30T13:27:05.934Z,2.92
2024-04-30T13:28:06.212Z,3.20
2024-04-30T13:29:06.104Z,3.76
2024-04-30T13:30:06.148Z,2.93